createdAt,value
2023-02-01T00:00:52.717Z,0.00
2023-02-01T00:01:52.719Z,0.00
2023-02-01T00:02:52.735Z,0.00
2023-02-01T00:03:52.713Z,0.00
2023-02-01T00:04:52.684Z,0.00
2023-02-01T00:05:52.679Z,0.00
2023-02-01T00:06:52.649Z,0.00
2023-02-01T00:07:52.645Z,0.00
2023-02-01T00:08:52.698Z,0.00
2023-02-01T00:09:52.626Z,0.00
2023-02-01T00:10:52.663Z,0.00
2023-02-01T00:11:52.616Z,0.00
2023-02-01T00:12:52.583Z,0.00
2023-02-01T00:13:52.601Z,0.00
2023-02-01T00:14:52.578Z,0.00
2023-02-01T00:15:52.608Z,0.00
2023-02-01T00:16:52.564Z,0.00
2023-02-01T00:17:52.534Z,0.00
2023-02-01T00:18:52.537Z,0.00
2023-02-01T00:19:52.512Z,0.00
2023-02-01T00:20:52.532Z,0.00
2023-02-01T00:21:52.539Z,0.00
2023-02-01T00:22:52.492Z,0.00
2023-02-01T00:23:52.595Z,0.00
2023-02-01T00:24:52.465Z,0.00
2023-02-01T00:25:52.464Z,0.00
2023-02-01T00:26:52.512Z,0.00
2023-02-01T00:27:52.460Z,0.00
2023-02-01T00:28:52.430Z,0.00
2023-02-01T00:29:52.453Z,0.00
2023-02-01T00:30:52.481Z,0.00
2023-02-01T00:31:52.554Z,0.00
2023-02-01T00:32:52.458Z,0.00
2023-02-01T00:33:52.374Z,0.00
2023-02-01T00:34:52.402Z,0.00
2023-02-01T00:35:52.364Z,0.00
2023-02-01T00:36:52.411Z,0.00
2023-02-01T00:37:52.342Z,0.00
2023-02-01T00:38:52.335Z,0.00
2023-02-01T00:39:52.331Z,0.00
2023-02-01T00:40:52.317Z,0.00
2023-02-01T00:41:52.319Z,0.00
2023-02-01T00:42:52.320Z,0.00
2023-02-01T00:43:52.313Z,0.00
2023-02-01T00:44:52.262Z,0.00
2023-02-01T00:45:52.258Z,0.00
2023-02-01T00:46:52.344Z,0.00
2023-02-01T00:47:52.269Z,0.00
2023-02-01T00:48:52.263Z,0.00
2023-02-01T00:49:52.232Z,0.00
2023-02-01T00:50:52.204Z,0.00
2023-02-01T00:51:52.257Z,0.00
2023-02-01T00:52:52.205Z,0.00
2023-02-01T00:53:52.180Z,0.00
2023-02-01T00:54:52.192Z,0.00
2023-02-01T00:55:52.189Z,0.00
2023-02-01T00:56:52.213Z,0.00
2023-02-01T00:57:52.139Z,0.00
2023-02-01T00:58:52.138Z,0.00
2023-02-01T00:59:52.208Z,0.00
2023-02-01T01:00:52.188Z,0.00
2023-02-01T01:01:52.173Z,0.00
2023-02-01T01:02:52.118Z,0.00
2023-02-01T01:03:52.081Z,0.00
2023-02-01T01:04:52.108Z,0.00
2023-02-01T01:05:52.074Z,0.00
2023-02-01T01:06:52.078Z,0.00
2023-02-01T01:07:52.039Z,0.00
2023-02-01T01:08:52.048Z,0.00
2023-02-01T01:09:52.035Z,0.00
2023-02-01T01:10:52.065Z,0.00
2023-02-01T01:11:52.050Z,0.00
2023-02-01T01:12:51.992Z,0.00
2023-02-01T01:13:51.979Z,0.00
2023-02-01T01:14:52.010Z,0.00
2023-02-01T01:15:52.064Z,0.00
2023-02-01T01:16:51.999Z,0.00
2023-02-01T01:17:51.945Z,0.00
2023-02-01T01:18:51.940Z,0.00
2023-02-01T01:19:51.919Z,0.00
2023-02-01T01:20:51.940Z,0.00
2023-02-01T01:21:51.904Z,0.00
2023-02-01T01:22:51.904Z,0.00
2023-02-01T01:23:51.929Z,0.00
2023-02-01T01:24:51.877Z,0.00
2023-02-01T01:25:51.869Z,0.00
2023-02-01T01:26:52.006Z,0.00
2023-02-01T01:27:51.887Z,0.00
2023-02-01T01:28:51.853Z,0.00
2023-02-01T01:29:51.815Z,0.00
2023-02-01T01:30:51.816Z,0.00
2023-02-01T01:31:51.845Z,0.00
2023-02-01T01:32:51.825Z,0.00
2023-02-01T01:33:51.779Z,0.00
2023-02-01T01:34:51.770Z,0.00
2023-02-01T01:35:51.763Z,0.00
2023-02-01T01:36:51.768Z,0.00
2023-02-01T01:37:51.747Z,0.00
2023-02-01T01:38:51.771Z,0.00
2023-02-01T01:39:51.738Z,0.00
2023-02-01T01:40:51.752Z,0.00
2023-02-01T01:41:51.726Z,0.00
2023-02-01T01:42:51.695Z,0.00
2023-02-01T01:43:51.715Z,0.00
2023-02-01T01:44:51.695Z,0.00
2023-02-01T01:45:51.673Z,0.00
2023-02-01T01:46:51.708Z,0.00
2023-02-01T01:47:51.631Z,0.00
2023-02-01T01:48:51.638Z,0.00
2023-02-01T01:49:51.639Z,0.00
2023-02-01T01:50:51.631Z,0.00
2023-02-01T01:51:51.644Z,0.00
2023-02-01T01:52:51.600Z,0.00
2023-02-01T01:53:51.585Z,0.00
2023-02-01T01:54:51.571Z,0.00
2023-02-01T01:55:51.561Z,0.00
2023-02-01T01:56:51.580Z,0.00
2023-02-01T01:57:51.581Z,0.00
2023-02-01T01:58:51.561Z,0.00
2023-02-01T01:59:51.516Z,0.00
2023-02-01T02:00:51.560Z,0.00
2023-02-01T02:01:51.510Z,0.00
2023-02-01T02:02:51.527Z,0.00
2023-02-01T02:03:51.511Z,0.00
2023-02-01T02:04:51.477Z,0.00
2023-02-01T02:05:51.466Z,0.00
2023-02-01T02:06:51.478Z,0.00
2023-02-01T02:07:51.434Z,0.00
2023-02-01T02:08:51.440Z,0.00
2023-02-01T02:10:00.517Z,0.00
2023-02-01T02:10:51.449Z,0.00
2023-02-01T02:11:51.410Z,0.00
2023-02-01T02:12:51.423Z,0.00
2023-02-01T02:13:51.394Z,0.00
2023-02-01T02:14:51.377Z,0.00
2023-02-01T02:15:51.359Z,0.00
2023-02-01T02:16:51.355Z,0.00
2023-02-01T02:17:51.376Z,0.00
2023-02-01T02:18:51.331Z,0.00
2023-02-01T02:19:51.316Z,0.00
2023-02-01T02:20:51.323Z,0.00
2023-02-01T02:21:51.313Z,0.00
2023-02-01T02:22:51.311Z,0.00
2023-02-01T02:23:51.290Z,0.00
2023-02-01T02:24:51.273Z,0.00
2023-02-01T02:25:51.251Z,0.00
2023-02-01T02:26:51.328Z,0.00
2023-02-01T02:27:51.262Z,0.00
2023-02-01T02:28:51.256Z,0.00
2023-02-01T02:29:51.258Z,0.00
2023-02-01T02:30:51.271Z,0.00
2023-02-01T02:31:51.240Z,0.00
2023-02-01T02:32:51.236Z,0.00
2023-02-01T02:33:51.180Z,0.00
2023-02-01T02:34:51.177Z,0.00
2023-02-01T02:35:51.203Z,0.00
2023-02-01T02:36:51.170Z,0.00
2023-02-01T02:37:51.152Z,0.00
2023-02-01T02:38:51.161Z,0.00
2023-02-01T02:39:51.145Z,0.00
2023-02-01T02:40:51.115Z,0.00
2023-02-01T02:41:51.093Z,0.00
2023-02-01T02:42:51.106Z,0.00
2023-02-01T02:43:51.103Z,0.00
2023-02-01T02:44:51.098Z,0.00
2023-02-01T02:45:51.064Z,0.00
2023-02-01T02:46:51.093Z,0.00
2023-02-01T02:47:51.079Z,0.00
2023-02-01T02:48:51.062Z,0.00
2023-02-01T02:49:51.020Z,0.00
2023-02-01T02:50:51.052Z,0.00
2023-02-01T02:51:50.999Z,0.00
2023-02-01T02:52:50.995Z,0.00
2023-02-01T02:53:51.030Z,0.00
2023-02-01T02:54:51.030Z,0.00
2023-02-01T02:55:50.968Z,0.00
2023-02-01T02:56:50.964Z,0.00
2023-02-01T02:57:50.944Z,0.00
2023-02-01T02:58:50.976Z,0.00
2023-02-01T02:59:50.925Z,0.00
2023-02-01T03:00:50.970Z,0.00
2023-02-01T03:01:50.934Z,0.00
2023-02-01T03:02:50.949Z,0.00
2023-02-01T03:03:50.908Z,0.00
2023-02-01T03:04:50.896Z,0.00
2023-02-01T03:05:50.871Z,0.00
2023-02-01T03:06:50.887Z,0.00
2023-02-01T03:07:50.849Z,0.00
2023-02-01T03:08:50.833Z,0.00
2023-02-01T03:09:50.849Z,0.00
2023-02-01T03:10:50.826Z,0.00
2023-02-01T03:11:50.809Z,0.00
2023-02-01T03:12:50.806Z,0.00
2023-02-01T03:13:50.799Z,0.00
2023-02-01T03:14:50.814Z,0.00
2023-02-01T03:15:50.763Z,0.00
2023-02-01T03:16:50.846Z,0.00
2023-02-01T03:17:50.750Z,0.00
2023-02-01T03:18:50.756Z,0.00
2023-02-01T03:19:50.758Z,0.00
2023-02-01T03:20:50.718Z,0.00
2023-02-01T03:21:50.732Z,0.00
2023-02-01T03:22:50.733Z,0.00
2023-02-01T03:23:50.689Z,0.00
2023-02-01T03:24:50.702Z,0.00
2023-02-01T03:25:50.684Z,0.00
2023-02-01T03:26:50.693Z,0.00
2023-02-01T03:27:50.663Z,0.00
2023-02-01T03:28:50.642Z,0.00
2023-02-01T03:29:50.653Z,0.00
2023-02-01T03:30:50.681Z,0.00
2023-02-01T03:31:50.633Z,0.00
2023-02-01T03:32:50.616Z,0.00
2023-02-01T03:33:50.600Z,0.00
2023-02-01T03:34:50.588Z,0.00
2023-02-01T03:35:50.591Z,0.00
2023-02-01T03:36:50.580Z,0.00
2023-02-01T03:37:50.571Z,0.00
2023-02-01T03:38:50.549Z,0.00
2023-02-01T03:39:50.557Z,0.00
2023-02-01T03:40:50.538Z,0.00
2023-02-01T03:41:50.635Z,0.00
2023-02-01T03:42:50.500Z,0.00
2023-02-01T03:43:50.491Z,0.00
2023-02-01T03:44:50.484Z,0.00
2023-02-01T03:45:50.505Z,0.00
2023-02-01T03:46:50.472Z,0.00
2023-02-01T03:47:50.486Z,0.00
2023-02-01T03:48:50.451Z,0.00
2023-02-01T03:49:50.429Z,0.00
2023-02-01T03:50:50.428Z,0.00
2023-02-01T03:51:50.469Z,0.00
2023-02-01T03:52:50.430Z,0.00
2023-02-01T03:53:50.387Z,0.00
2023-02-01T03:54:50.418Z,0.00
2023-02-01T03:55:50.390Z,0.00
2023-02-01T03:56:50.364Z,0.00
2023-02-01T03:57:50.393Z,0.00
2023-02-01T03:58:50.351Z,0.00
2023-02-01T03:59:50.325Z,0.00
2023-02-01T04:00:50.315Z,0.00
2023-02-01T04:01:50.320Z,0.00
2023-02-01T04:02:50.326Z,0.00
2023-02-01T04:03:50.287Z,0.00
2023-02-01T04:04:50.298Z,0.00
2023-02-01T04:05:50.292Z,0.00
2023-02-01T04:06:50.301Z,0.00
2023-02-01T04:07:50.244Z,0.00
2023-02-01T04:08:50.252Z,0.00
2023-02-01T04:09:50.233Z,0.00
2023-02-01T04:10:50.251Z,0.00
2023-02-01T04:11:50.217Z,0.00
2023-02-01T04:12:50.238Z,0.00
2023-02-01T04:13:50.214Z,0.00
2023-02-01T04:14:50.207Z,0.00
2023-02-01T04:15:50.208Z,0.00
2023-02-01T04:16:50.247Z,0.00
2023-02-01T04:17:50.216Z,0.00
2023-02-01T04:18:50.227Z,0.00
2023-02-01T04:19:50.138Z,0.00
2023-02-01T04:20:50.119Z,0.00
2023-02-01T04:21:50.121Z,0.00
2023-02-01T04:22:50.123Z,0.00
2023-02-01T04:23:50.149Z,0.00
2023-02-01T04:24:50.080Z,0.00
2023-02-01T04:25:50.073Z,0.00
2023-02-01T04:26:50.208Z,0.00
2023-02-01T04:27:50.055Z,0.00
2023-02-01T04:28:50.078Z,0.00
2023-02-01T04:29:50.041Z,0.00
2023-02-01T04:30:50.212Z,0.00
2023-02-01T04:31:50.106Z,0.00
2023-02-01T04:32:50.008Z,0.00
2023-02-01T04:33:50.014Z,0.00
2023-02-01T04:34:50.004Z,0.00
2023-02-01T04:35:49.981Z,0.00
2023-02-01T04:36:49.975Z,0.00
2023-02-01T04:37:49.999Z,0.00
2023-02-01T04:38:49.960Z,0.00
2023-02-01T04:39:49.980Z,0.00
2023-02-01T04:40:49.957Z,0.00
2023-02-01T04:41:49.873Z,0.00
2023-02-01T04:42:49.912Z,0.00
2023-02-01T04:43:49.920Z,0.00
2023-02-01T04:44:49.893Z,0.00
2023-02-01T04:45:50.062Z,0.00
2023-02-01T04:46:49.882Z,0.00
2023-02-01T04:47:49.877Z,0.00
2023-02-01T04:48:49.850Z,0.00
2023-02-01T04:49:49.920Z,0.00
2023-02-01T04:50:49.884Z,0.00
2023-02-01T04:51:49.819Z,0.00
2023-02-01T04:52:49.812Z,0.00
2023-02-01T04:53:49.819Z,0.00
2023-02-01T04:54:49.826Z,0.00
2023-02-01T04:55:49.767Z,0.00
2023-02-01T04:56:49.763Z,0.00
2023-02-01T04:57:49.795Z,0.00
2023-02-01T04:58:49.770Z,0.00
2023-02-01T04:59:49.751Z,0.00
2023-02-01T05:00:49.717Z,0.00
2023-02-01T05:01:49.734Z,0.00
2023-02-01T05:02:49.711Z,0.00
2023-02-01T05:03:49.695Z,0.00
2023-02-01T05:04:49.758Z,0.00
2023-02-01T05:05:49.673Z,0.00
2023-02-01T05:06:49.736Z,0.00
2023-02-01T05:07:49.699Z,0.00
2023-02-01T05:08:49.796Z,0.00
2023-02-01T05:09:49.641Z,0.00
2023-02-01T05:10:49.617Z,0.00
2023-02-01T05:11:49.656Z,0.00
2023-02-01T05:12:49.663Z,0.00
2023-02-01T05:13:49.645Z,0.00
2023-02-01T05:14:49.617Z,0.00
2023-02-01T05:15:49.641Z,0.00
2023-02-01T05:16:49.558Z,0.00
2023-02-01T05:17:49.574Z,0.00
2023-02-01T05:18:49.564Z,0.00
2023-02-01T05:19:49.539Z,0.00
2023-02-01T05:20:49.520Z,0.00
2023-02-01T05:21:49.516Z,0.00
2023-02-01T05:22:49.520Z,0.00
2023-02-01T05:23:49.515Z,0.00
2023-02-01T05:24:49.502Z,0.00
2023-02-01T05:25:49.484Z,0.00
2023-02-01T05:26:49.525Z,0.00
2023-02-01T05:27:49.497Z,0.00
2023-02-01T05:28:49.458Z,0.00
2023-02-01T05:29:49.445Z,0.00
2023-02-01T05:30:49.526Z,0.00
2023-02-01T05:31:49.600Z,0.00
2023-02-01T05:32:49.426Z,0.00
2023-02-01T05:33:49.415Z,0.00
2023-02-01T05:34:49.475Z,0.00
2023-02-01T05:35:49.426Z,0.00
2023-02-01T05:36:49.392Z,0.00
2023-02-01T05:37:49.301Z,0.00
2023-02-01T05:38:49.433Z,0.00
2023-02-01T05:39:49.363Z,0.00
2023-02-01T05:40:49.344Z,0.00
2023-02-01T05:41:49.331Z,0.00
2023-02-01T05:42:49.342Z,0.00
2023-02-01T05:43:49.304Z,0.00
2023-02-01T05:44:49.331Z,0.00
2023-02-01T05:45:49.277Z,0.00
2023-02-01T05:46:50.309Z,0.00
2023-02-01T05:47:49.267Z,0.00
2023-02-01T05:48:49.263Z,0.00
2023-02-01T05:49:49.212Z,0.00
2023-02-01T05:50:49.251Z,0.00
2023-02-01T05:51:49.220Z,0.00
2023-02-01T05:52:49.216Z,0.00
2023-02-01T05:53:49.232Z,0.00
2023-02-01T05:54:49.181Z,0.00
2023-02-01T05:55:49.226Z,0.00
2023-02-01T05:56:49.171Z,0.00
2023-02-01T05:57:49.200Z,0.00
2023-02-01T05:58:49.150Z,0.00
2023-02-01T05:59:49.145Z,0.00
2023-02-01T06:00:49.144Z,0.00
2023-02-01T06:01:49.138Z,0.00
2023-02-01T06:02:49.130Z,0.00
2023-02-01T06:03:49.154Z,0.00
2023-02-01T06:04:49.224Z,0.00
2023-02-01T06:05:49.116Z,0.00
2023-02-01T06:06:49.080Z,0.00
2023-02-01T06:07:49.067Z,0.00
2023-02-01T06:08:49.020Z,0.00
2023-02-01T06:09:49.103Z,0.00
2023-02-01T06:10:49.061Z,0.00
2023-02-01T06:11:49.047Z,0.00
2023-02-01T06:12:49.009Z,0.00
2023-02-01T06:13:48.994Z,0.00
2023-02-01T06:14:48.967Z,0.00
2023-02-01T06:15:49.036Z,0.00
2023-02-01T06:16:48.910Z,0.00
2023-02-01T06:17:48.987Z,0.00
2023-02-01T06:18:48.972Z,0.00
2023-02-01T06:19:48.937Z,0.00
2023-02-01T06:20:48.942Z,0.00
2023-02-01T06:21:48.926Z,0.00
2023-02-01T06:22:48.860Z,0.00
2023-02-01T06:23:48.907Z,0.00
2023-02-01T06:24:48.890Z,0.00
2023-02-01T06:25:48.912Z,0.00
2023-02-01T06:26:48.954Z,0.00
2023-02-01T06:27:48.848Z,0.00
2023-02-01T06:28:48.801Z,0.00
2023-02-01T06:29:48.791Z,0.00
2023-02-01T06:30:48.841Z,0.00
2023-02-01T06:31:48.856Z,0.00
2023-02-01T06:32:48.825Z,0.00
2023-02-01T06:33:48.757Z,0.00
2023-02-01T06:34:48.732Z,0.00
2023-02-01T06:35:48.785Z,0.00
2023-02-01T06:36:48.751Z,0.00
2023-02-01T06:37:48.722Z,0.00
2023-02-01T06:38:48.698Z,0.00
2023-02-01T06:39:48.691Z,0.00
2023-02-01T06:40:48.681Z,0.00
2023-02-01T06:41:48.670Z,0.00
2023-02-01T06:42:48.677Z,0.00
2023-02-01T06:43:48.645Z,0.00
2023-02-01T06:44:48.646Z,0.00
2023-02-01T06:45:48.620Z,0.00
2023-02-01T06:46:48.644Z,0.00
2023-02-01T06:47:48.641Z,0.00
2023-02-01T06:48:48.595Z,0.00
2023-02-01T06:49:48.584Z,0.00
2023-02-01T06:50:48.646Z,0.00
2023-02-01T06:51:48.586Z,0.00
2023-02-01T06:52:48.554Z,0.00
2023-02-01T06:53:48.567Z,0.00
2023-02-01T06:54:48.568Z,0.00
2023-02-01T06:55:48.534Z,0.00
2023-02-01T06:56:48.526Z,0.00
2023-02-01T06:57:48.521Z,0.00
2023-02-01T06:58:48.494Z,0.00
2023-02-01T06:59:48.529Z,0.00
2023-02-01T07:00:48.735Z,0.00
2023-02-01T07:01:48.529Z,0.00
2023-02-01T07:02:48.497Z,0.00
2023-02-01T07:03:48.465Z,0.00
2023-02-01T07:04:48.450Z,0.00
2023-02-01T07:05:48.423Z,0.00
2023-02-01T07:06:48.411Z,0.00
2023-02-01T07:07:48.424Z,0.00
2023-02-01T07:08:48.435Z,0.00
2023-02-01T07:09:48.388Z,0.00
2023-02-01T07:10:48.371Z,0.00
2023-02-01T07:11:48.386Z,0.00
2023-02-01T07:12:48.353Z,0.00
2023-02-01T07:13:48.349Z,0.00
2023-02-01T07:14:48.363Z,0.00
2023-02-01T07:15:48.329Z,5.62
2023-02-01T07:16:48.330Z,5.62
2023-02-01T07:17:48.335Z,5.62
2023-02-01T07:18:48.303Z,5.62
2023-02-01T07:19:48.393Z,5.62
2023-02-01T07:20:48.291Z,5.62
2023-02-01T07:21:48.292Z,5.62
2023-02-01T07:22:48.319Z,5.62
2023-02-01T07:23:48.252Z,5.62
2023-02-01T07:24:48.307Z,5.62
2023-02-01T07:25:48.392Z,5.62
2023-02-01T07:26:48.379Z,5.62
2023-02-01T07:27:48.248Z,5.62
2023-02-01T07:28:48.348Z,5.62
2023-02-01T07:29:48.198Z,5.62
2023-02-01T07:30:48.203Z,5.62
2023-02-01T07:31:48.242Z,5.62
2023-02-01T07:32:48.185Z,5.62
2023-02-01T07:33:48.186Z,5.62
2023-02-01T07:34:48.163Z,5.62
2023-02-01T07:35:50.081Z,11.25
2023-02-01T07:36:48.189Z,11.25
2023-02-01T07:37:48.123Z,11.25
2023-02-01T07:38:48.150Z,11.25
2023-02-01T07:39:48.147Z,11.25
2023-02-01T07:40:48.170Z,11.25
2023-02-01T07:41:48.117Z,11.25
2023-02-01T07:42:48.121Z,11.25
2023-02-01T07:43:48.191Z,16.88
2023-02-01T07:44:48.156Z,16.88
2023-02-01T07:45:48.105Z,16.88
2023-02-01T07:46:48.024Z,16.88
2023-02-01T07:47:48.087Z,16.88
2023-02-01T07:48:48.044Z,16.88
2023-02-01T07:49:48.042Z,16.88
2023-02-01T07:50:47.992Z,16.88
2023-02-01T07:51:47.996Z,16.88
2023-02-01T07:52:47.977Z,16.88
2023-02-01T07:53:48.527Z,16.88
2023-02-01T07:54:48.705Z,16.88
2023-02-01T07:55:48.144Z,16.88
2023-02-01T07:56:48.725Z,16.88
2023-02-01T07:57:47.926Z,16.88
2023-02-01T07:58:49.807Z,22.50
2023-02-01T07:59:47.977Z,22.50
2023-02-01T08:00:47.899Z,22.50
2023-02-01T08:01:47.930Z,22.50
2023-02-01T08:02:48.174Z,22.50
2023-02-01T08:03:47.880Z,22.50
2023-02-01T08:04:47.953Z,22.50
2023-02-01T08:05:47.871Z,22.50
2023-02-01T08:06:47.994Z,22.50
2023-02-01T08:07:47.906Z,22.50
2023-02-01T08:08:47.896Z,22.50
2023-02-01T08:09:47.834Z,22.50
2023-02-01T08:10:47.780Z,28.12
2023-02-01T08:11:47.956Z,28.12
2023-02-01T08:12:48.158Z,22.50
2023-02-01T08:13:47.784Z,22.50
2023-02-01T08:14:49.767Z,28.12
2023-02-01T08:15:47.830Z,28.12
2023-02-01T08:16:47.772Z,22.50
2023-02-01T08:17:47.981Z,22.50
2023-02-01T08:18:47.749Z,16.88
2023-02-01T08:19:47.688Z,22.50
2023-02-01T08:20:47.695Z,16.88
2023-02-01T08:21:47.675Z,22.50
2023-02-01T08:22:47.685Z,22.50
2023-02-01T08:23:47.779Z,28.12
2023-02-01T08:24:47.660Z,28.12
2023-02-01T08:25:47.676Z,28.12
2023-02-01T08:26:47.712Z,28.12
2023-02-01T08:27:47.664Z,28.12
2023-02-01T08:28:47.925Z,33.75
2023-02-01T08:29:56.754Z,33.75
2023-02-01T08:30:49.376Z,28.12
2023-02-01T08:31:47.618Z,33.75
2023-02-01T08:32:48.277Z,39.38
2023-02-01T08:33:47.565Z,45.00
2023-02-01T08:34:47.624Z,45.00
2023-02-01T08:35:47.585Z,45.00
2023-02-01T08:36:47.674Z,39.38
2023-02-01T08:37:47.787Z,39.38
2023-02-01T08:38:47.731Z,39.38
2023-02-01T08:39:48.088Z,39.38
2023-02-01T08:40:48.415Z,39.38
2023-02-01T08:41:47.557Z,39.38
2023-02-01T08:42:47.484Z,39.38
2023-02-01T08:43:51.191Z,33.75
2023-02-01T08:44:47.559Z,33.75
2023-02-01T08:45:47.538Z,33.75
2023-02-01T08:46:47.452Z,33.75
2023-02-01T08:47:47.516Z,33.75
2023-02-01T08:48:47.466Z,33.75
2023-02-01T08:49:47.472Z,39.38
2023-02-01T08:50:47.469Z,39.38
2023-02-01T08:51:48.280Z,39.38
2023-02-01T08:52:48.480Z,39.38
2023-02-01T08:53:47.350Z,39.38
2023-02-01T08:54:47.393Z,39.38
2023-02-01T08:55:47.372Z,45.00
2023-02-01T08:56:47.347Z,50.62
2023-02-01T08:57:47.343Z,50.62
2023-02-01T08:58:47.304Z,45.00
2023-02-01T08:59:48.227Z,45.00
2023-02-01T09:00:57.046Z,45.00
2023-02-01T09:01:47.294Z,45.00
2023-02-01T09:02:48.381Z,39.38
2023-02-01T09:03:47.342Z,39.38
2023-02-01T09:04:47.278Z,33.75
2023-02-01T09:05:49.768Z,33.75
2023-02-01T09:06:47.259Z,33.75
2023-02-01T09:07:47.231Z,39.38
2023-02-01T09:08:47.246Z,39.38
2023-02-01T09:09:47.239Z,33.75
2023-02-01T09:10:47.909Z,33.75
2023-02-01T09:11:47.247Z,28.12
2023-02-01T09:12:47.197Z,28.12
2023-02-01T09:13:48.755Z,33.75
2023-02-01T09:14:48.267Z,39.38
2023-02-01T09:15:47.775Z,33.75
2023-02-01T09:16:47.152Z,33.75
2023-02-01T09:17:47.254Z,22.50
2023-02-01T09:18:56.045Z,28.12
2023-02-01T09:19:47.135Z,33.75
2023-02-01T09:20:47.205Z,28.12
2023-02-01T09:21:47.406Z,28.12
2023-02-01T09:22:47.859Z,22.50
2023-02-01T09:23:47.754Z,28.12
2023-02-01T09:24:47.147Z,22.50
2023-02-01T09:25:47.082Z,16.88
2023-02-01T09:26:47.394Z,16.88
2023-02-01T09:27:47.096Z,16.88
2023-02-01T09:28:47.024Z,22.50
2023-02-01T09:29:47.073Z,22.50
2023-02-01T09:30:47.154Z,22.50
2023-02-01T09:32:01.507Z,28.12
2023-02-01T09:32:47.015Z,39.38
2023-02-01T09:33:46.953Z,28.12
2023-02-01T09:34:47.011Z,33.75
2023-02-01T09:35:46.961Z,45.00
2023-02-01T09:36:47.222Z,33.75
2023-02-01T09:37:46.971Z,33.75
2023-02-01T09:38:52.905Z,33.75
2023-02-01T09:39:46.942Z,28.12
2023-02-01T09:40:46.959Z,28.12
2023-02-01T09:41:46.912Z,33.75
2023-02-01T09:42:47.056Z,45.00
2023-02-01T09:43:46.863Z,45.00
2023-02-01T09:44:46.873Z,39.38
2023-02-01T09:45:47.784Z,33.75
2023-02-01T09:46:49.852Z,16.88
2023-02-01T09:47:48.587Z,22.50
2023-02-01T09:48:47.281Z,28.12
2023-02-01T09:49:47.799Z,22.50
2023-02-01T09:50:47.565Z,22.50
2023-02-01T10:06:25.366Z,22.50
2023-02-01T10:06:31.257Z,39.38
2023-02-01T10:07:30.441Z,39.38
2023-02-01T10:08:31.317Z,33.75
2023-02-01T10:09:31.215Z,33.75
2023-02-01T10:10:32.248Z,50.62
2023-02-01T10:11:30.405Z,33.75
2023-02-01T10:12:31.254Z,33.75
2023-02-01T10:13:30.314Z,33.75
2023-02-01T10:14:30.456Z,39.38
2023-02-01T10:15:31.244Z,33.75
2023-02-01T10:16:30.367Z,39.38
2023-02-01T10:17:32.331Z,33.75
2023-02-01T10:18:30.279Z,33.75
2023-02-01T10:19:30.285Z,33.75
2023-02-01T10:20:30.281Z,28.12
2023-02-01T10:21:30.316Z,28.12
2023-02-01T10:22:52.196Z,28.12
2023-02-01T10:23:34.417Z,28.12
2023-02-01T10:24:31.323Z,28.12
2023-02-01T10:25:30.799Z,28.12
2023-02-01T10:26:30.197Z,33.75
2023-02-01T10:27:30.187Z,28.12
2023-02-01T10:28:30.264Z,28.12
2023-02-01T10:29:30.147Z,28.12
2023-02-01T10:30:34.543Z,33.75
2023-02-01T10:31:30.966Z,33.75
2023-02-01T10:32:31.758Z,39.38
2023-02-01T10:33:30.116Z,45.00
2023-02-01T10:34:30.208Z,39.38
2023-02-01T10:35:30.084Z,39.38
2023-02-01T10:36:31.158Z,45.00
2023-02-01T10:37:30.118Z,45.00
2023-02-01T10:38:30.109Z,56.25
2023-02-01T10:39:30.068Z,56.25
2023-02-01T10:40:30.052Z,45.00
2023-02-01T10:41:30.029Z,45.00
2023-02-01T10:42:30.033Z,45.00
2023-02-01T10:43:30.016Z,45.00
2023-02-01T10:44:30.035Z,39.38
2023-02-01T10:45:30.264Z,39.38
2023-02-01T10:46:30.014Z,45.00
2023-02-01T10:47:30.239Z,39.38
2023-02-01T10:48:31.133Z,39.38
2023-02-01T10:49:29.957Z,39.38
2023-02-01T10:50:30.253Z,45.00
2023-02-01T10:51:29.960Z,45.00
2023-02-01T10:52:29.974Z,39.38
2023-02-01T10:53:29.931Z,33.75
2023-02-01T10:54:30.753Z,33.75
2023-02-01T10:55:29.969Z,45.00
2023-02-01T10:56:29.897Z,39.38
2023-02-01T10:57:29.872Z,39.38
2023-02-01T10:58:29.869Z,39.38
2023-02-01T10:59:29.906Z,33.75
2023-02-01T11:00:29.868Z,28.12
2023-02-01T11:01:29.905Z,22.50
2023-02-01T11:02:29.912Z,22.50
2023-02-01T11:03:29.852Z,22.50
2023-02-01T11:04:29.885Z,22.50
2023-02-01T11:05:29.865Z,22.50
2023-02-01T11:06:29.835Z,22.50
2023-02-01T11:07:29.804Z,28.12
2023-02-01T11:08:29.802Z,22.50
2023-02-01T11:09:29.824Z,22.50
2023-02-01T11:10:29.769Z,22.50
2023-02-01T11:11:29.731Z,22.50
2023-02-01T11:12:29.833Z,22.50
2023-02-01T11:13:29.708Z,16.88
2023-02-01T11:14:30.735Z,22.50
2023-02-01T11:15:29.719Z,22.50
2023-02-01T11:16:29.858Z,22.50
2023-02-01T11:17:29.724Z,28.12
2023-02-01T11:18:29.685Z,22.50
2023-02-01T11:19:29.655Z,22.50
2023-02-01T11:20:29.645Z,28.12
2023-02-01T11:21:29.666Z,33.75
2023-02-01T11:22:29.865Z,39.38
2023-02-01T11:23:29.631Z,39.38
2023-02-01T11:24:29.652Z,39.38
2023-02-01T11:25:29.593Z,39.38
2023-02-01T11:26:29.693Z,39.38
2023-02-01T11:27:29.638Z,39.38
2023-02-01T11:28:30.228Z,39.38
2023-02-01T11:29:29.568Z,39.38
2023-02-01T11:30:29.713Z,39.38
2023-02-01T11:31:29.622Z,39.38
2023-02-01T11:32:29.555Z,39.38
2023-02-01T11:33:29.560Z,33.75
2023-02-01T11:34:29.549Z,33.75
2023-02-01T11:35:29.503Z,39.38
2023-02-01T11:36:29.501Z,39.38
2023-02-01T11:37:29.511Z,39.38
2023-02-01T11:38:29.566Z,45.00
2023-02-01T11:39:29.477Z,39.38
2023-02-01T11:40:29.454Z,39.38
2023-02-01T11:41:29.497Z,45.00
2023-02-01T11:42:29.478Z,39.38
2023-02-01T11:43:29.521Z,45.00
2023-02-01T11:44:29.473Z,39.38
2023-02-01T11:45:29.436Z,39.38
2023-02-01T11:46:30.318Z,39.38
2023-02-01T11:47:29.450Z,39.38
2023-02-01T11:48:29.412Z,39.38
2023-02-01T11:49:29.393Z,39.38
2023-02-01T11:50:29.353Z,50.62
2023-02-01T11:51:29.420Z,39.38
2023-02-01T11:52:29.370Z,39.38
2023-02-01T11:53:29.345Z,50.62
2023-02-01T11:54:29.358Z,56.25
2023-02-01T11:55:29.315Z,39.38
2023-02-01T11:56:29.294Z,33.75
2023-02-01T11:57:29.318Z,33.75
2023-02-01T11:58:29.290Z,28.12
2023-02-01T11:59:29.318Z,28.12
2023-02-01T12:00:29.372Z,39.38
2023-02-01T12:01:29.251Z,33.75
2023-02-01T12:02:29.272Z,33.75
2023-02-01T12:03:29.315Z,39.38
2023-02-01T12:04:30.075Z,39.38
2023-02-01T12:05:29.312Z,33.75
2023-02-01T12:06:29.205Z,33.75
2023-02-01T12:07:29.232Z,33.75
2023-02-01T12:08:29.257Z,33.75
2023-02-01T12:09:29.171Z,33.75
2023-02-01T12:10:29.263Z,33.75
2023-02-01T12:11:29.256Z,33.75
2023-02-01T12:12:29.153Z,33.75
2023-02-01T12:13:29.156Z,39.38
2023-02-01T12:14:29.145Z,39.38
2023-02-01T12:15:29.211Z,56.25
2023-02-01T12:16:29.188Z,45.00
2023-02-01T12:17:29.136Z,45.00
2023-02-01T12:18:29.084Z,45.00
2023-02-01T12:19:29.137Z,45.00
2023-02-01T12:20:30.058Z,45.00
2023-02-01T12:21:29.096Z,39.38
2023-02-01T12:22:29.057Z,33.75
2023-02-01T12:23:29.044Z,33.75
2023-02-01T12:24:29.328Z,28.12
2023-02-01T12:25:29.031Z,28.12
2023-02-01T12:26:29.062Z,22.50
2023-02-01T12:27:29.048Z,22.50
2023-02-01T12:28:29.001Z,28.12
2023-02-01T12:29:31.648Z,28.12
2023-02-01T12:30:28.990Z,28.12
2023-02-01T12:31:29.077Z,22.50
2023-02-01T12:32:28.953Z,22.50
2023-02-01T12:33:28.942Z,16.88
2023-02-01T12:34:28.961Z,16.88
2023-02-01T12:35:28.914Z,22.50
2023-02-01T12:36:28.914Z,22.50
2023-02-01T12:37:28.914Z,22.50
2023-02-01T12:38:29.036Z,22.50
2023-02-01T12:39:28.918Z,22.50
2023-02-01T12:40:28.925Z,22.50
2023-02-01T12:41:29.205Z,16.88
2023-02-01T12:42:28.920Z,16.88
2023-02-01T12:43:28.880Z,16.88
2023-02-01T12:44:28.882Z,16.88
2023-02-01T12:45:28.905Z,16.88
2023-02-01T12:46:28.825Z,16.88
2023-02-01T12:47:28.803Z,16.88
2023-02-01T12:48:29.757Z,16.88
2023-02-01T12:49:28.847Z,16.88
2023-02-01T12:50:28.786Z,22.50
2023-02-01T12:51:28.878Z,16.88
2023-02-01T12:52:28.776Z,16.88
2023-02-01T12:53:29.083Z,16.88
2023-02-01T12:54:28.741Z,16.88
2023-02-01T12:55:28.760Z,16.88
2023-02-01T12:56:28.710Z,11.25
2023-02-01T12:57:28.723Z,11.25
2023-02-01T12:58:28.706Z,11.25
2023-02-01T12:59:28.752Z,11.25
2023-02-01T13:00:28.727Z,11.25
2023-02-01T13:01:28.793Z,11.25
2023-02-01T13:02:28.748Z,11.25
2023-02-01T13:03:28.668Z,11.25
2023-02-01T13:04:28.662Z,11.25
2023-02-01T13:05:28.653Z,11.25
2023-02-01T13:06:28.629Z,11.25
2023-02-01T13:07:28.651Z,11.25
2023-02-01T13:08:28.886Z,11.25
2023-02-01T13:09:28.664Z,11.25
2023-02-01T13:10:29.242Z,11.25
2023-02-01T13:11:28.645Z,11.25
2023-02-01T13:12:29.324Z,11.25
2023-02-01T13:13:28.540Z,16.88
2023-02-01T13:14:29.163Z,16.88
2023-02-01T13:15:28.548Z,16.88
2023-02-01T13:16:29.435Z,16.88
2023-02-01T13:17:28.530Z,22.50
2023-02-01T13:18:28.547Z,22.50
2023-02-01T13:19:28.512Z,16.88
2023-02-01T13:20:28.542Z,16.88
2023-02-01T13:21:29.331Z,11.25